Hovedside
METAR-TAF:

METAR-TAF

Lufthavner :

Haugesund, Norge

Haugesund lufthavn

breddegrad: 59-21N, lengdegrad: 005-13E, høyde over havet: 2 m

Gjeldene værobservasjon

Denne rapporten ble laget for 44 minutter siden, klokken 13:50 UTC
Vind 20 kt fra Sørøst
Temperatur 6°C
Luftfuktighet 87%
Trykk 986 hPa
Sikt: 8000 m
Få skyer i en høyde av 1100 ft
Brutte skyer i en høyde av 2100 ft
regnbyger

METAR: ENHD 221350Z 13020KT 8000 SHRA FEW011 BKN021 06/04 Q0986

Tid: 15:34 (14:34 UTC)

Varsel

Denne rapporten ble laget for 3 timer og 34 minutter siden, klokken 11:00 UTC
Varsel gyldig fra 22. klokken 12 UTC til 22. klokken 21 UTC
Vind 20 kt fra Øst-sørøst
Sikt 10 km eller mer
Brutte skyer i en høyde av 2000 ft
lett regn
Blir
fra 22. klokken 19 UTC til 22. klokken 21 UTC
Vind 20 kt fra Sør
Sikt: 4000 m
Brutte skyer i en høyde av 700 ft
regn, duskregn, dis

TAF: ENHD 221100Z 2212/2221 12020KT 9999 -RA BKN020 BECMG 2219/2221 18020KT 4000 RADZ BR BKN007

Værobservasjoner og værvarsel for over 4000 flyplasser (METAR- og TAF-rapporter).

Tilgjengelige stasjoner er representert av de røde og gule prikkene på kartet.

Hold musepekeren over prikken for å se navnet på stasjonen.

Klikk så for å se værobservasjoner og -varsler.

For å forandre kartet kan du klikke på den grønne knappen med svart kryss for å zoome inn, på den grønne knappen med strek for å zoome ut, eller på de grønne pilene for å se tilstøtende kart.


METAR-TAF: